Time;durP1;ratioP1;P1;durP2;ratioP2;P2;SDS_P1;SDS_P2;PMS_P1;PMS_P2;Temp;Humidity;BMP_temperature;BMP_pressure;BME280_temperature;BME280_humidity;BME280_pressure;Samples;Min_cycle;Max_cycle;Signal;HPM_P1;HPM_P2
2022/02/20 00:01:53;;;;;;;79.13;26.25;;;;;;;8.84;49.72;100133.75;5124513;27;20015;-78
2022/02/20 00:04:19;;;;;;;56.10;18.98;;;;;;;8.82;49.13;100104.84;5131457;27;20073;-78
2022/02/20 00:06:44;;;;;;;43.63;19.60;;;;;;;8.61;52.06;100098.91;5124577;27;20039;-78
2022/02/20 00:09:10;;;;;;;40.80;17.63;;;;;;;8.20;53.77;100108.72;5130024;27;20023;-79
2022/02/20 00:11:36;;;;;;;52.03;17.83;;;;;;;7.74;55.55;100096.16;5124706;27;20054;-78
2022/02/20 00:14:02;;;;;;;42.67;16.58;;;;;;;7.74;56.36;100119.06;5127548;27;20027;-77
2022/02/20 00:16:27;;;;;;;41.20;17.70;;;;;;;7.70;56.77;100102.66;5121206;28;20098;-77
2022/02/20 00:18:53;;;;;;;39.58;15.75;;;;;;;7.86;55.84;100129.34;5122449;28;20356;-78
2022/02/20 00:21:18;;;;;;;40.22;15.05;;;;;;;7.91;55.70;100127.13;5127247;28;20032;-77
2022/02/20 00:23:44;;;;;;;33.97;13.43;;;;;;;7.94;55.53;100120.75;5129405;27;20023;-78
2022/02/20 00:26:09;;;;;;;33.60;13.52;;;;;;;8.12;54.95;100123.56;5121468;28;20040;-78
2022/02/20 00:28:35;;;;;;;38.28;14.82;;;;;;;8.10;55.03;100109.69;5128428;27;20043;-77
2022/02/20 00:31:00;;;;;;;37.13;14.10;;;;;;;8.12;55.29;100097.19;5136519;28;20029;-77
2022/02/20 00:33:26;;;;;;;34.85;15.07;;;;;;;8.36;54.46;100116.16;5127564;28;20034;-78
2022/02/20 00:35:51;;;;;;;35.22;14.15;;;;;;;8.40;54.43;100114.06;5133774;28;20058;-78
2022/02/20 00:38:17;;;;;;;33.92;14.07;;;;;;;8.37;54.14;100124.91;5141776;27;20019;-78
2022/02/20 00:40:43;;;;;;;36.00;14.57;;;;;;;8.40;54.26;100132.53;5136195;28;20190;-78
2022/02/20 00:43:09;;;;;;;35.88;14.25;;;;;;;8.41;54.07;100127.13;5124200;28;20057;-78
2022/02/20 00:45:35;;;;;;;34.35;14.75;;;;;;;8.38;53.89;100126.56;5127528;28;20175;-77
2022/02/20 00:48:00;;;;;;;37.55;14.63;;;;;;;8.12;53.69;100111.22;5128950;28;20026;-78
2022/02/20 00:50:27;;;;;;;37.88;15.85;;;;;;;8.28;53.07;100124.69;5130856;27;20193;-78
2022/02/20 00:52:54;;;;;;;45.25;17.92;;;;;;;8.29;53.30;100121.06;5122189;27;20050;-77
2022/02/20 00:55:20;;;;;;;44.53;18.63;;;;;;;8.35;53.38;100121.56;5121070;28;20042;-78
2022/02/20 00:57:45;;;;;;;50.25;19.83;;;;;;;8.51;52.81;100116.56;5122682;28;20325;-78
2022/02/20 01:00:12;;;;;;;52.65;22.42;;;;;;;8.45;52.79;100106.56;5127887;28;20400;-77
2022/02/20 01:02:38;;;;;;;54.17;24.13;;;;;;;8.49;52.84;100116.69;5130918;28;20079;-77
2022/02/20 01:05:05;;;;;;;59.70;22.38;;;;;;;8.31;53.43;100119.13;5130584;28;20023;-78
2022/02/20 01:07:30;;;;;;;54.80;23.38;;;;;;;8.21;53.07;100120.94;5128935;28;20046;-78
2022/02/20 01:09:56;;;;;;;57.83;24.08;;;;;;;8.20;53.42;100121.06;5136032;27;20023;-78
2022/02/20 01:12:21;;;;;;;53.47;22.77;;;;;;;7.97;53.63;100075.66;5140404;28;20054;-77
2022/02/20 01:14:47;;;;;;;60.45;24.25;;;;;;;8.28;53.67;100087.75;5127326;27;20051;-76
2022/02/20 01:17:14;;;;;;;52.38;22.30;;;;;;;8.26;53.67;100083.59;5126682;28;20050;-78
2022/02/20 01:19:40;;;;;;;52.25;22.92;;;;;;;7.88;54.28;100069.41;5129662;28;20041;-77
2022/02/20 01:22:06;;;;;;;54.42;23.58;;;;;;;8.18;53.36;100086.91;5127090;27;20028;-77
2022/02/20 01:24:33;;;;;;;65.40;24.90;;;;;;;8.14;53.62;100066.22;5123820;27;20103;-77
2022/02/20 01:26:59;;;;;;;57.70;24.05;;;;;;;8.27;53.57;100072.91;5129889;27;20047;-77
2022/02/20 01:29:24;;;;;;;60.30;25.20;;;;;;;8.28;53.73;100077.19;5129144;27;20034;-77
2022/02/20 01:31:51;;;;;;;57.92;24.88;;;;;;;8.25;53.49;100077.47;5129841;27;20050;-77
2022/02/20 01:34:16;;;;;;;59.13;26.05;;;;;;;8.30;53.48;100075.25;5132290;27;20030;-78
2022/02/20 01:36:42;;;;;;;64.30;26.48;;;;;;;8.31;53.63;100073.44;5130664;27;20400;-78
2022/02/20 01:39:07;;;;;;;70.07;27.08;;;;;;;8.35;53.43;100063.50;5130449;27;20064;-79
2022/02/20 01:41:33;;;;;;;66.93;26.10;;;;;;;8.14;53.89;100047.78;5125399;27;20228;-78
2022/02/20 01:43:58;;;;;;;72.70;27.60;;;;;;;8.18;54.03;100079.00;5124114;28;20027;-77
2022/02/20 01:46:24;;;;;;;66.68;28.48;;;;;;;8.21;53.60;100086.63;5140145;27;20019;-77
2022/02/20 01:48:49;;;;;;;59.00;25.58;;;;;;;8.31;53.69;100076.91;5146243;27;20034;-78
2022/02/20 01:51:15;;;;;;;59.85;26.52;;;;;;;8.37;53.95;100086.16;5133132;27;20098;-78
2022/02/20 01:53:41;;;;;;;73.32;28.27;;;;;;;8.19;53.49;100064.00;5128591;27;20037;-78
2022/02/20 01:56:06;;;;;;;64.05;28.33;;;;;;;8.09;53.71;100050.81;5131141;27;20035;-78
2022/02/20 01:58:32;;;;;;;68.28;28.75;;;;;;;8.07;54.03;100063.31;5129111;27;20040;-78
2022/02/20 02:00:59;;;;;;;77.53;30.35;;;;;;;8.04;54.34;100068.88;5132329;27;20313;-78
2022/02/20 02:03:25;;;;;;;89.38;35.65;;;;;;;7.94;53.77;100015.28;5129092;27;20053;-78
2022/02/20 02:05:50;;;;;;;87.53;35.22;;;;;;;8.29;53.21;100054.28;5126222;27;20406;-78
2022/02/20 02:08:18;;;;;;;76.80;31.98;;;;;;;8.44;52.91;100063.50;5125041;27;20348;-77
2022/02/20 02:10:43;;;;;;;74.93;31.85;;;;;;;8.37;53.17;100062.41;5126787;27;20217;-77
2022/02/20 02:13:09;;;;;;;72.05;31.80;;;;;;;8.40;52.70;100048.94;5128198;27;20039;-78
2022/02/20 02:15:34;;;;;;;73.43;33.17;;;;;;;8.41;52.63;100061.16;5122638;28;20266;-78
2022/02/20 02:18:00;;;;;;;69.70;32.63;;;;;;;8.32;52.44;100054.88;5122494;28;20027;-78
2022/02/20 02:20:26;;;;;;;75.85;33.72;;;;;;;8.26;52.41;100044.00;5127249;27;20322;-78
2022/02/20 02:22:51;;;;;;;68.93;32.20;;;;;;;8.24;52.90;100065.25;5132429;27;20031;-78
2022/02/20 02:25:16;;;;;;;71.53;33.88;;;;;;;8.36;52.73;100084.47;5129918;27;20055;-78
2022/02/20 02:27:43;;;;;;;79.68;33.33;;;;;;;8.21;53.07;100091.09;5126725;27;20051;-78
2022/02/20 02:30:10;;;;;;;73.32;35.42;;;;;;;8.01;53.51;100092.88;5123448;27;20036;-78
2022/02/20 02:32:36;;;;;;;95.53;37.78;;;;;;;8.20;52.82;100111.34;5123282;28;20073;-79
2022/02/20 02:35:03;;;;;;;96.22;36.10;;;;;;;7.74;53.75;100092.69;5130781;27;20027;-77
2022/02/20 02:37:28;;;;;;;67.68;27.83;;;;;;;7.47;55.38;100114.38;5124522;27;20035;-77
2022/02/20 02:39:54;;;;;;;61.67;26.00;;;;;;;7.41;55.38;100097.31;5130096;27;20035;-78
2022/02/20 02:42:20;;;;;;;61.00;26.55;;;;;;;7.37;54.91;100061.66;5133602;27;20027;-78
2022/02/20 02:44:45;;;;;;;60.05;26.58;;;;;;;7.77;54.24;100111.72;5128410;27;20020;-78
2022/02/20 02:47:11;;;;;;;60.25;25.85;;;;;;;7.67;54.39;100116.94;5131540;27;21062;-78
2022/02/20 02:49:38;;;;;;;69.55;27.92;;;;;;;7.62;54.85;100100.72;5129633;27;20031;-78
2022/02/20 02:52:05;;;;;;;62.85;26.85;;;;;;;7.65;54.65;100104.88;5128218;27;20035;-78
2022/02/20 02:54:30;;;;;;;55.95;25.30;;;;;;;7.19;55.39;100111.47;5124938;27;20032;-78
2022/02/20 02:56:56;;;;;;;62.22;25.73;;;;;;;7.61;54.88;100111.38;5126868;27;20336;-78
2022/02/20 02:59:22;;;;;;;62.08;25.55;;;;;;;7.63;54.66;100106.81;5130755;27;20041;-77
2022/02/20 03:01:50;;;;;;;65.18;24.85;;;;;;;7.22;54.85;100055.06;5129366;27;20035;-78
2022/02/20 03:04:16;;;;;;;73.03;28.65;;;;;;;7.79;54.08;100106.31;5131574;27;20101;-78
2022/02/20 03:06:42;;;;;;;77.82;28.70;;;;;;;7.78;53.81;100104.63;5129911;27;20035;-77
2022/02/20 03:09:08;;;;;;;71.90;26.73;;;;;;;7.46;54.81;100102.19;5128797;27;20027;-77
2022/02/20 03:11:34;;;;;;;76.82;27.27;;;;;;;7.64;54.63;100111.13;5129067;27;20036;-77
2022/02/20 03:14:00;;;;;;;64.25;24.58;;;;;;;7.63;54.00;100086.56;5128041;27;20073;-77
2022/02/20 03:16:25;;;;;;;50.13;21.05;;;;;;;7.66;54.17;100099.47;5126266;27;20107;-77
2022/02/20 03:18:51;;;;;;;52.88;21.77;;;;;;;7.53;55.13;100084.88;5127859;27;20031;-77
2022/02/20 03:21:16;;;;;;;44.28;19.75;;;;;;;7.68;54.22;100096.69;5128990;27;20031;-78
2022/02/20 03:23:42;;;;;;;46.08;20.00;;;;;;;7.75;54.16;100089.91;5126820;27;20022;-78
2022/02/20 03:26:08;;;;;;;46.47;19.55;;;;;;;7.59;54.26;100090.44;5129124;27;20549;-78
2022/02/20 03:28:33;;;;;;;47.47;19.75;;;;;;;7.41;54.43;100063.06;5125740;27;20027;-78
2022/02/20 03:30:59;;;;;;;44.33;19.00;;;;;;;7.29;55.82;100085.22;5130220;27;20022;-78
2022/02/20 03:33:25;;;;;;;40.47;18.33;;;;;;;6.98;56.70;100074.66;5126214;27;20046;-78
2022/02/20 03:35:52;;;;;;;42.10;18.05;;;;;;;6.98;55.83;100035.16;5133598;27;20213;-78
2022/02/20 03:38:17;;;;;;;44.97;18.52;;;;;;;7.31;54.64;100044.59;5127388;27;20043;-78
2022/02/20 03:40:43;;;;;;;45.55;21.83;;;;;;;7.46;54.51;100047.69;5130754;27;20190;-78
2022/02/20 03:43:09;;;;;;;44.75;18.85;;;;;;;7.46;54.25;100038.94;5126520;27;20042;-78
2022/02/20 03:45:34;;;;;;;52.45;19.90;;;;;;;7.30;54.58;100024.50;5120621;28;20356;-78
2022/02/20 03:48:00;;;;;;;48.83;19.63;;;;;;;7.40;55.23;100042.97;5122405;27;20499;-78
2022/02/20 03:50:26;;;;;;;44.83;19.15;;;;;;;7.35;55.48;100068.88;5128411;27;20027;-78
2022/02/20 03:52:52;;;;;;;42.85;19.23;;;;;;;7.36;55.00;100058.19;5124942;27;20243;-77
2022/02/20 03:55:18;;;;;;;46.28;19.38;;;;;;;7.32;56.19;100067.34;5126116;27;20031;-78
2022/02/20 03:57:44;;;;;;;40.75;18.83;;;;;;;7.38;55.27;100076.50;5125486;27;20024;-78
2022/02/20 04:00:12;;;;;;;45.15;18.27;;;;;;;7.32;55.48;100075.22;5136341;27;20081;-78
2022/02/20 04:02:38;;;;;;;47.92;19.33;;;;;;;7.30;55.79;100065.78;5127851;27;20027;-78
2022/02/20 04:05:12;;;;;;;40.30;18.02;;;;;;;7.14;55.45;100050.47;5127592;27;20015;-78
2022/02/20 04:07:38;;;;;;;41.97;18.15;;;;;;;6.81;56.30;100053.34;5144476;27;20031;-77
2022/02/20 04:10:06;;;;;;;45.08;18.92;;;;;;;6.68;57.25;100050.94;5126952;27;20243;-78
2022/02/20 04:12:32;;;;;;;48.63;20.23;;;;;;;6.30;58.88;100047.09;5125281;27;20363;-77
2022/02/20 04:14:57;;;;;;;49.80;23.58;;;;;;;6.30;59.09;100048.88;5129128;27;20035;-77
2022/02/20 04:17:24;;;;;;;63.25;27.00;;;;;;;6.55;57.97;100037.97;5122611;27;20020;-78
2022/02/20 04:19:51;;;;;;;54.28;24.27;;;;;;;6.82;57.36;100034.81;5121714;28;20298;-78
2022/02/20 04:22:16;;;;;;;47.63;21.02;;;;;;;6.82;57.02;100020.81;5124539;28;20107;-78
2022/02/20 04:24:42;;;;;;;57.40;23.02;;;;;;;6.95;56.56;100022.25;5128520;28;20027;-78
2022/02/20 04:27:07;;;;;;;53.22;24.02;;;;;;;7.02;56.76;100025.19;5127173;27;20040;-78
2022/02/20 04:29:33;;;;;;;51.13;24.58;;;;;;;7.10;56.16;100008.72;5124087;28;20030;-78
2022/02/20 04:31:59;;;;;;;85.95;36.28;;;;;;;7.11;55.57;99994.59;5127774;28;20042;-78
2022/02/20 04:34:24;;;;;;;71.28;29.42;;;;;;;7.32;56.58;100009.38;5124283;27;20209;-78
2022/02/20 04:36:50;;;;;;;82.00;31.50;;;;;;;7.31;55.34;99991.06;5125864;28;20040;-78
2022/02/20 04:39:15;;;;;;;143.10;42.33;;;;;;;7.23;56.03;99977.72;5127512;28;20239;-78
2022/02/20 04:41:41;;;;;;;181.27;47.10;;;;;;;7.23;55.82;99977.72;5126346;28;20083;-76
2022/02/20 04:44:06;;;;;;;103.57;36.30;;;;;;;7.24;55.87;99998.66;5127734;27;20211;-76
2022/02/20 04:46:35;;;;;;;93.68;32.67;;;;;;;6.95;57.73;100011.72;5130371;27;20023;-76
2022/02/20 04:49:04;;;;;;;79.15;30.83;;;;;;;7.08;57.42;100019.38;5126765;28;20104;-78
2022/02/20 04:51:30;;;;;;;86.57;31.50;;;;;;;6.99;57.18;100009.66;5130765;28;20027;-78
2022/02/20 04:53:56;;;;;;;89.00;33.78;;;;;;;6.44;58.31;99953.88;5130024;27;20055;-78
2022/02/20 04:56:21;;;;;;;68.47;29.02;;;;;;;7.02;57.79;100022.56;5126387;28;20041;-78
2022/02/20 04:58:47;;;;;;;62.35;27.63;;;;;;;7.07;57.19;100014.25;5127362;27;20019;-78
2022/02/20 05:01:12;;;;;;;60.92;27.75;;;;;;;7.05;57.79;100027.56;5126159;27;20386;-78
2022/02/20 05:03:38;;;;;;;62.22;28.48;;;;;;;6.48;58.85;100010.53;5134305;27;20031;-78
2022/02/20 05:06:03;;;;;;;66.88;26.23;;;;;;;6.68;59.42;100038.59;5128911;27;20028;-78
2022/02/20 05:08:28;;;;;;;75.47;28.45;;;;;;;6.38;59.85;100031.50;5129719;27;20027;-77
2022/02/20 05:10:54;;;;;;;54.30;23.52;;;;;;;6.38;60.18;100009.63;5124549;28;20024;-77
2022/02/20 05:13:19;;;;;;;54.75;23.65;;;;;;;6.59;59.13;100020.13;5124937;27;20372;-78
2022/02/20 05:15:47;;;;;;;48.85;21.58;;;;;;;6.76;59.09;100024.78;5132209;27;20168;-77
2022/02/20 05:18:13;;;;;;;49.00;21.70;;;;;;;6.92;57.72;100027.78;5130108;27;20102;-78
2022/02/20 05:20:39;;;;;;;50.72;22.60;;;;;;;6.84;58.43;100056.56;5128881;27;20038;-78
2022/02/20 05:23:04;;;;;;;45.95;20.70;;;;;;;6.93;58.39;100052.31;5134847;27;20041;-78
2022/02/20 05:25:29;;;;;;;41.63;19.38;;;;;;;7.23;57.53;100052.28;5129391;27;20368;-78
2022/02/20 05:27:55;;;;;;;45.78;19.05;;;;;;;7.15;57.99;100072.38;5134097;27;20091;-78
2022/02/20 05:30:20;;;;;;;38.85;16.40;;;;;;;7.26;57.28;100095.97;5135586;27;20080;-76
2022/02/20 05:32:46;;;;;;;39.47;16.63;;;;;;;6.99;57.69;100109.69;5146175;27;20049;-78
2022/02/20 05:35:12;;;;;;;41.92;17.70;;;;;;;6.90;58.21;100103.41;5146007;27;20023;-78
2022/02/20 05:37:46;;;;;;;36.53;16.65;;;;;;;7.04;57.73;100126.78;5145927;27;20058;-78
2022/02/20 05:40:14;;;;;;;34.70;14.60;;;;;;;7.02;57.25;100143.66;5144685;27;20019;-78
2022/02/20 05:42:40;;;;;;;32.28;15.55;;;;;;;6.80;58.41;100139.38;5145965;27;20047;-78
2022/02/20 05:45:06;;;;;;;46.25;17.63;;;;;;;6.79;58.63;100127.19;5145817;27;20047;-77
2022/02/20 05:47:32;;;;;;;39.25;18.48;;;;;;;6.87;58.98;100127.38;5126114;28;20237;-77
2022/02/20 05:49:57;;;;;;;37.05;17.52;;;;;;;6.83;58.47;100104.91;5146087;27;20027;-77
2022/02/20 05:52:23;;;;;;;40.58;17.95;;;;;;;6.64;59.46;100095.09;5145639;27;20023;-77
2022/02/20 05:54:48;;;;;;;60.55;22.90;;;;;;;6.89;58.62;100109.66;5145750;27;20030;-78
2022/02/20 05:57:14;;;;;;;60.85;21.92;;;;;;;6.95;59.06;100088.06;5145569;27;20054;-79
2022/02/20 05:59:39;;;;;;;74.80;27.77;;;;;;;6.98;58.49;100116.78;5145472;27;20301;-77
2022/02/20 06:02:05;;;;;;;67.47;23.63;;;;;;;6.72;59.49;100103.16;5145595;27;20023;-78
2022/02/20 06:04:30;;;;;;;44.55;19.45;;;;;;;6.98;58.95;100103.59;5144319;27;20019;-78
2022/02/20 06:06:56;;;;;;;44.30;18.00;;;;;;;7.13;58.04;100104.09;5145395;27;20089;-78
2022/02/20 06:09:22;;;;;;;43.15;16.77;;;;;;;7.15;58.36;100151.38;5145293;27;20091;-78
2022/02/20 06:11:47;;;;;;;38.90;16.52;;;;;;;7.01;59.38;100161.25;5144816;27;20108;-78
2022/02/20 06:14:12;;;;;;;53.80;20.25;;;;;;;7.10;59.45;100140.38;5145125;27;20037;-78
2022/02/20 06:16:38;;;;;;;50.45;21.90;;;;;;;7.08;59.60;100160.75;5145312;27;20047;-78
2022/02/20 06:19:03;;;;;;;42.75;19.20;;;;;;;6.94;60.05;100177.72;5145232;27;20031;-78
2022/02/20 06:21:29;;;;;;;47.28;18.58;;;;;;;6.66;60.33;100139.69;5145370;27;20072;-78
2022/02/20 06:23:54;;;;;;;42.70;16.55;;;;;;;7.04;59.67;100134.69;5129540;27;20019;-78
2022/02/20 06:26:20;;;;;;;39.45;16.15;;;;;;;7.23;58.32;100138.38;5128208;27;20047;-77
2022/02/20 06:28:45;;;;;;;39.47;14.18;;;;;;;7.44;57.25;100135.72;5127718;27;20035;-77
2022/02/20 06:31:10;;;;;;;60.42;19.77;;;;;;;7.37;57.69;100148.59;5125669;27;20090;-78
2022/02/20 06:33:36;;;;;;;45.55;17.17;;;;;;;7.53;57.37;100156.84;5127219;27;20023;-78
2022/02/20 06:36:02;;;;;;;56.50;19.38;;;;;;;7.63;56.97;100144.53;5128749;27;20044;-78
2022/02/20 06:38:27;;;;;;;48.58;17.58;;;;;;;7.86;56.78;100134.63;5137144;27;20090;-78
2022/02/20 06:40:53;;;;;;;54.60;20.45;;;;;;;7.65;57.18;100134.69;5139699;27;20474;-77
2022/02/20 06:43:18;;;;;;;59.47;23.40;;;;;;;7.76;57.65;100127.66;5128340;27;20039;-78
2022/02/20 06:45:44;;;;;;;39.30;15.82;;;;;;;7.50;57.19;100108.84;5138541;27;20038;-77
2022/02/20 06:48:09;;;;;;;66.65;19.52;;;;;;;7.96;56.65;100117.03;5128206;27;20041;-76
2022/02/20 06:50:34;;;;;;;49.13;17.35;;;;;;;8.07;56.57;100115.22;5133355;27;20079;-78
2022/02/20 06:53:00;;;;;;;67.88;21.00;;;;;;;8.17;56.07;100108.16;5129756;27;20036;-78
2022/02/20 06:55:26;;;;;;;38.70;14.60;;;;;;;8.02;55.30;100111.19;5128655;27;20019;-79
2022/02/20 06:57:54;;;;;;;42.08;14.70;;;;;;;8.05;56.02;100111.91;5129081;27;20265;-78
2022/02/20 07:00:19;;;;;;;41.92;15.27;;;;;;;8.22;55.94;100121.78;5127371;27;20046;-78
2022/02/20 07:02:45;;;;;;;39.42;14.43;;;;;;;7.99;56.56;100129.94;5130825;27;20377;-78
2022/02/20 07:05:10;;;;;;;57.40;18.42;;;;;;;7.90;56.79;100140.47;5127483;27;20229;-78
2022/02/20 07:07:38;;;;;;;75.53;24.30;;;;;;;7.42;58.84;100135.88;5128785;27;20248;-78
2022/02/20 07:10:07;;;;;;;97.28;28.00;;;;;;;7.83;57.28;100110.34;5134271;27;20195;-78
2022/02/20 07:12:32;;;;;;;90.43;29.50;;;;;;;8.02;56.61;100094.53;5124892;27;20483;-78
2022/02/20 07:14:58;;;;;;;64.60;22.23;;;;;;;7.79;58.00;100108.94;5136906;27;20027;-78
2022/02/20 07:17:23;;;;;;;55.78;17.27;;;;;;;7.66;58.91;100117.91;5143003;27;20225;-78
2022/02/20 07:19:49;;;;;;;50.75;19.13;;;;;;;7.91;57.49;100126.31;5134120;27;20094;-77
2022/02/20 07:22:14;;;;;;;73.75;23.95;;;;;;;7.71;58.67;100106.97;5128389;27;20310;-78
2022/02/20 07:24:40;;;;;;;75.10;27.30;;;;;;;7.91;58.45;100126.31;5142002;27;20026;-78
2022/02/20 07:27:05;;;;;;;69.57;23.83;;;;;;;8.15;57.88;100126.75;5141445;27;20340;-78
2022/02/20 07:29:31;;;;;;;51.70;22.42;;;;;;;8.21;57.46;100135.94;5126743;27;20023;-78
2022/02/20 07:31:56;;;;;;;105.20;38.97;;;;;;;7.99;58.68;100137.00;5128676;27;20035;-78
2022/02/20 07:34:21;;;;;;;63.72;24.65;;;;;;;7.95;59.12;100141.72;5125292;27;20039;-78
2022/02/20 07:36:47;;;;;;;87.72;33.40;;;;;;;7.91;58.79;100140.31;5128590;27;20039;-78
2022/02/20 07:39:12;;;;;;;91.53;38.13;;;;;;;8.12;58.88;100144.66;5128787;27;20321;-78
2022/02/20 07:41:39;;;;;;;60.75;26.95;;;;;;;8.49;57.65;100114.06;5123523;27;20217;-78
2022/02/20 07:44:05;;;;;;;41.33;18.13;;;;;;;8.70;57.37;100124.47;5122649;27;20269;-78
2022/02/20 07:46:31;;;;;;;35.13;16.75;;;;;;;8.79;57.49;100120.13;5123594;27;20199;-77
2022/02/20 07:49:00;;;;;;;30.02;14.88;;;;;;;8.73;57.31;100121.53;5133918;27;20038;-78
2022/02/20 07:51:26;;;;;;;29.52;13.25;;;;;;;8.84;56.45;100100.25;5142796;27;20066;-78
2022/02/20 07:53:53;;;;;;;29.83;14.48;;;;;;;9.06;55.33;100093.81;5135252;27;20035;-77
2022/02/20 07:56:19;;;;;;;30.67;14.05;;;;;;;8.92;55.54;100083.69;5132888;27;20047;-77
2022/02/20 07:58:45;;;;;;;26.98;13.35;;;;;;;8.94;55.58;100077.31;5124867;27;20011;-78
2022/02/20 08:01:11;;;;;;;28.30;13.05;;;;;;;9.03;55.88;100077.41;5131233;27;20042;-78
2022/02/20 08:03:37;;;;;;;27.83;13.23;;;;;;;9.25;55.03;100084.97;5129967;27;20298;-78
2022/02/20 08:06:03;;;;;;;31.50;13.05;;;;;;;9.19;55.27;100085.56;5129591;27;20310;-78
2022/02/20 08:08:33;;;;;;;40.60;16.02;;;;;;;9.14;55.56;100077.22;5126774;27;20050;-78
2022/02/20 08:11:00;;;;;;;33.58;16.33;;;;;;;9.45;55.29;100075.19;5123513;27;20035;-78
2022/02/20 08:13:26;;;;;;;35.67;16.92;;;;;;;9.38;55.68;100074.09;5124877;27;20027;-78
2022/02/20 08:15:52;;;;;;;44.60;18.48;;;;;;;9.47;55.33;100052.09;5127953;27;20568;-79
2022/02/20 08:18:19;;;;;;;41.63;18.70;;;;;;;9.12;56.56;100026.34;5134288;27;20048;-79
2022/02/20 08:20:44;;;;;;;44.47;18.83;;;;;;;8.58;58.26;100014.72;5142295;27;20270;-78
2022/02/20 08:23:11;;;;;;;42.38;18.73;;;;;;;8.93;58.66;100033.38;5133022;27;20110;-78
2022/02/20 08:25:39;;;;;;;42.67;19.50;;;;;;;9.17;57.23;100037.31;5127392;28;20379;-78
2022/02/20 08:28:04;;;;;;;58.55;22.27;;;;;;;9.01;57.06;100048.50;5127129;27;20039;-78
2022/02/20 08:30:30;;;;;;;34.78;17.88;;;;;;;9.23;55.77;100044.66;5134820;27;20027;-78
2022/02/20 08:32:55;;;;;;;44.75;19.52;;;;;;;9.08;56.11;100060.16;5140777;28;20202;-78
2022/02/20 08:35:21;;;;;;;44.63;19.63;;;;;;;8.92;56.73;100062.56;5129110;27;20039;-78
2022/02/20 08:37:46;;;;;;;46.92;21.25;;;;;;;9.00;56.53;100046.00;5129680;27;20322;-78
2022/02/20 08:40:17;;;;;;;46.28;21.70;;;;;;;9.52;55.14;100060.41;5130886;27;20031;-78
2022/02/20 08:42:43;;;;;;;51.85;21.85;;;;;;;9.41;55.36;100047.38;5126675;27;20027;-78
2022/02/20 08:45:10;;;;;;;47.17;21.35;;;;;;;9.86;54.52;100063.25;5133551;27;20047;-77
2022/02/20 08:47:36;;;;;;;52.67;22.83;;;;;;;9.91;54.45;100071.56;5140536;27;20076;-77
2022/02/20 08:50:03;;;;;;;45.95;22.27;;;;;;;9.92;54.40;100066.13;5143445;27;20094;-78
2022/02/20 08:52:29;;;;;;;68.45;27.33;;;;;;;10.21;53.17;100050.06;5128105;27;20039;-78
2022/02/20 08:54:55;;;;;;;48.47;22.17;;;;;;;10.35;52.64;100032.81;5126317;27;20313;-78
2022/02/20 08:57:20;;;;;;;43.85;22.15;;;;;;;10.27;52.80;100035.38;5129675;27;20040;-78
2022/02/20 08:59:46;;;;;;;50.97;21.88;;;;;;;10.38;52.39;100023.72;5133157;27;20023;-78
2022/02/20 09:02:12;;;;;;;41.72;19.17;;;;;;;10.26;52.81;100017.84;5129200;27;20039;-77
2022/02/20 09:04:41;;;;;;;57.38;19.85;;;;;;;9.99;53.25;100026.69;5139635;27;20035;-78
2022/02/20 09:07:07;;;;;;;43.20;19.00;;;;;;;10.16;52.96;100035.59;5129308;27;20040;-78
2022/02/20 09:09:33;;;;;;;41.50;20.48;;;;;;;10.14;53.56;100019.88;5125720;27;20116;-78
2022/02/20 09:11:59;;;;;;;37.50;18.70;;;;;;;10.30;53.13;100040.38;5124963;28;20128;-78
2022/02/20 09:14:24;;;;;;;34.58;13.65;;;;;;;10.46;53.15;100037.06;5131570;27;20710;-78
2022/02/20 09:16:50;;;;;;;31.83;14.00;;;;;;;10.47;52.82;100034.25;5128960;27;20042;-78
2022/02/20 09:19:16;;;;;;;30.50;14.00;;;;;;;10.33;53.09;100044.53;5132534;27;20356;-78
2022/02/20 09:21:41;;;;;;;33.05;14.95;;;;;;;10.50;52.64;100054.28;5126404;27;20039;-77
2022/02/20 09:24:07;;;;;;;42.55;17.05;;;;;;;10.69;52.37;100038.22;5130232;27;20095;-78
2022/02/20 09:26:32;;;;;;;41.95;18.35;;;;;;;10.23;53.13;100026.91;5142094;27;20135;-77
2022/02/20 09:28:59;;;;;;;48.22;20.25;;;;;;;10.37;52.74;100054.66;5145000;27;20200;-78
2022/02/20 09:31:24;;;;;;;48.08;20.02;;;;;;;10.54;52.36;100026.53;5131781;27;20081;-77
2022/02/20 09:33:50;;;;;;;34.80;15.73;;;;;;;10.73;52.27;100018.38;5125668;27;20317;-77
2022/02/20 09:36:16;;;;;;;33.22;15.32;;;;;;;10.97;51.33;100014.19;5133680;27;20039;-77
2022/02/20 09:38:42;;;;;;;33.38;16.00;;;;;;;10.92;51.69;100011.19;5133822;27;20031;-77
2022/02/20 09:41:09;;;;;;;49.92;19.48;;;;;;;10.98;51.84;100026.47;5132956;27;20023;-77
2022/02/20 09:43:36;;;;;;;38.63;18.10;;;;;;;11.27;51.13;100029.56;5135235;27;20088;-77
2022/02/20 09:46:02;;;;;;;39.63;18.65;;;;;;;11.12;51.28;100039.13;5127181;27;20229;-78
2022/02/20 09:48:28;;;;;;;45.72;19.10;;;;;;;11.37;50.18;100051.50;5129603;27;20031;-78
2022/02/20 09:50:53;;;;;;;40.25;18.30;;;;;;;11.60;50.76;100038.50;5131247;27;20038;-78
2022/02/20 09:53:19;;;;;;;39.92;18.77;;;;;;;11.56;50.49;100033.69;5128762;27;20026;-78
2022/02/20 09:55:48;;;;;;;39.42;19.13;;;;;;;12.03;48.30;100016.22;5129474;27;20031;-78
2022/02/20 09:58:15;;;;;;;35.42;17.63;;;;;;;12.19;47.30;99998.66;5130475;27;20321;-78
2022/02/20 10:00:53;;;;;;;36.17;17.35;;;;;;;12.12;48.42;99995.81;5129569;27;20027;-78
2022/02/20 10:03:27;;;;;;;35.85;16.88;;;;;;;11.80;48.64;99984.19;5148207;27;20080;-78
2022/02/20 10:05:53;;;;;;;35.78;17.83;;;;;;;11.79;49.31;99963.13;5130127;27;20040;-77
2022/02/20 10:08:19;;;;;;;39.28;17.85;;;;;;;12.04;48.71;99971.94;5126997;27;20080;-78
2022/02/20 10:10:45;;;;;;;39.63;17.13;;;;;;;12.17;47.95;99968.78;5131695;27;20035;-77
2022/02/20 10:13:10;;;;;;;41.63;16.85;;;;;;;12.24;48.39;99961.81;5141543;27;20058;-77
2022/02/20 10:15:41;;;;;;;36.08;17.58;;;;;;;12.20;48.05;99963.16;5125884;28;20345;-77
2022/02/20 10:18:06;;;;;;;34.97;16.70;;;;;;;12.15;48.60;99966.28;5125553;27;20036;-76
2022/02/20 10:20:31;;;;;;;41.45;18.30;;;;;;;12.14;48.14;99964.63;5125633;27;20127;-76
2022/02/20 10:22:57;;;;;;;37.33;17.33;;;;;;;11.96;47.91;99945.41;5125528;27;20057;-78
2022/02/20 10:25:22;;;;;;;41.95;19.40;;;;;;;12.09;47.87;99951.88;5124671;27;20356;-78
2022/02/20 10:27:53;;;;;;;43.15;19.42;;;;;;;12.34;47.38;99959.81;5125229;27;20043;-77
2022/02/20 10:30:28;;;;;;;30.50;15.18;;;;;;;12.29;45.95;99943.56;5138707;27;20039;-78
2022/02/20 10:33:05;;;;;;;37.50;17.02;;;;;;;12.26;46.38;99934.09;5123580;28;20023;-77
2022/02/20 10:35:35;;;;;;;29.00;13.65;;;;;;;12.49;46.86;99939.56;5125473;27;20031;-77
2022/02/20 10:38:07;;;;;;;32.75;15.00;;;;;;;12.39;47.33;99929.09;5137658;27;20031;-76
2022/02/20 10:40:33;;;;;;;34.58;16.48;;;;;;;12.44;46.83;99923.28;5140266;27;20031;-77
2022/02/20 10:43:03;;;;;;;29.98;15.23;;;;;;;12.55;47.25;99922.94;5141711;27;20039;-78
2022/02/20 10:45:42;;;;;;;31.00;15.68;;;;;;;12.77;46.55;99918.72;5142346;27;20031;-77
2022/02/20 10:48:16;;;;;;;30.67;15.30;;;;;;;12.71;45.49;99901.63;5141927;27;20035;-78
2022/02/20 10:50:42;;;;;;;34.97;16.10;;;;;;;12.91;44.51;99902.06;5141415;27;20042;-78
2022/02/20 10:53:19;;;;;;;32.28;14.93;;;;;;;13.17;43.89;99896.47;5140568;27;20340;-77
2022/02/20 10:55:49;;;;;;;26.23;14.88;;;;;;;13.32;43.97;99891.22;5141620;27;20047;-78
2022/02/20 10:58:23;;;;;;;28.63;14.57;;;;;;;13.43;43.38;99883.66;5140191;27;20091;-78
2022/02/20 11:00:57;;;;;;;31.23;15.60;;;;;;;13.62;43.06;99873.59;5139111;27;20433;-78
2022/02/20 11:03:26;;;;;;;34.03;16.48;;;;;;;13.79;42.81;99868.97;5141122;27;20045;-78
2022/02/20 11:05:55;;;;;;;29.00;15.23;;;;;;;13.47;43.21;99859.38;5141227;27;20019;-78
2022/02/20 11:08:23;;;;;;;31.70;15.80;;;;;;;13.21;44.28;99846.44;5142439;27;20027;-78
2022/02/20 11:10:49;;;;;;;35.17;15.73;;;;;;;13.16;44.25;99835.47;5140283;27;20087;-78
2022/02/20 11:13:16;;;;;;;31.25;14.25;;;;;;;13.27;43.27;99833.25;5141159;27;20220;-79